Flight Track Log - Related Links

Times and Time Zones

All times are in EST time to prevent confusion due to time zone crossing. See the BOE1 flight status page for this flight to view local times or setup timezone preferences in your user account.

Time Position Orientation Groundspeed Altitude Reporting Facility
EST Latitude Longitude Course Direction KTS MPH feet Rate Location/Type
Thu 03:10:54 PM 47.5089 -122.2880 144° Southeast 166 191 1,500  Level Seattle Center
Thu 03:11:12 PM 47.4967 -122.2750 141° Southeast 163 188 2,300 1,671 Climbing Seattle Center
Thu 03:12:13 PM 47.4561 -122.2270 192° South 204 235 3,700 1,807 Climbing Seattle Center
Thu 03:12:58 PM 47.4169 -122.2040 221° Southwest 10,000 2,057 Climbing Seattle Center
Thu 03:13:58 PM 47.3806 -122.2510 287° West 210 242 7,300 -450 Descending Seattle Center
Thu 03:14:58 PM 47.3994 -122.3410 316° Northwest 177 204 9,100 1,300 Climbing Seattle Center
Thu 03:15:58 PM 47.4500 -122.4140 314° West 187 215 9,900 450 Climbing Seattle Center
Thu 03:16:58 PM 47.5003 -122.4900 304° West 226 260 10,000 50 Climbing Seattle Center
Thu 03:17:58 PM 47.5397 -122.5780 300° West 245 282 10,000  Level Seattle Center
Thu 03:18:58 PM 47.5750 -122.6690 301° West 250 288 10,000  Level Seattle Center
Thu 03:19:58 PM 47.6103 -122.7570 298° West 256 295 10,000  Level Seattle Center
Thu 03:20:58 PM 47.6433 -122.8480 300° West 256 295 10,000  Level Seattle Center
Thu 03:21:58 PM 47.6786 -122.9400 300° West 256 295 10,000  Level Seattle Center
Thu 03:22:58 PM 47.7136 -123.0310 323° Northwest 256 295 10,000  Level Seattle Center
Thu 03:23:58 PM 47.7681 -123.0930 North 256 295 10,000  Level Seattle Center
Thu 03:24:58 PM 47.8514 -123.0860 359° North 244 281 10,000 -59 Level Seattle Center
Thu 03:25:39 PM 47.9158 -123.0870 11° North 296 341 9,900  Descending Seattle Center
Thu 03:25:58 PM 47.9328 -123.0820 North 272 313 10,000  Climbing Seattle Center
Thu 03:26:34 PM 47.9847 -123.0790 North 285 328 9,900  Descending Seattle Center
Thu 03:26:58 PM 48.0119 -123.0740 360° North 277 319 10,000 -100 Climbing Seattle Center
Thu 03:27:34 PM 48.0639 -123.0740 North 282 325 9,800 -400 Descending Seattle Center
Thu 03:27:58 PM 48.0911 -123.0700 North 277 319 9,600 -764 Descending Seattle Center
Thu 03:28:29 PM 48.1369 -123.0690 North 282 325 9,100 -900 Descending Seattle Center
Thu 03:28:58 PM 48.1661 -123.0620 31° Northeast 277 319 8,700 -885 Descending Seattle Center
Thu 03:29:30 PM 48.2089 -123.0240 40° Northeast 290 334 8,200 -1,100 Descending Seattle Center
Thu 03:29:58 PM 48.2325 -122.9940 35° Northeast 267 307 7,600 -1,700 Descending Seattle Center
Thu 03:30:30 PM 48.2711 -122.9530 39° Northeast 268 308 6,500 -1,300 Descending Seattle Center
Thu 03:30:58 PM 48.2906 -122.9290 45° Northeast 267 307 6,300 -218 Descending Seattle Center
Thu 03:31:25 PM 48.3164 -122.8900 53° Northeast 256 295 6,300 -100 Level Seattle Center
Thu 03:31:58 PM 48.3361 -122.8510 49° Northeast 255 293 6,200 -300 Descending Seattle Center
Thu 03:32:25 PM 48.3622 -122.8060 56° Northeast 255 293 6,000 -100 Descending Seattle Center
Thu 03:32:58 PM 48.3800 -122.7660 52° Northeast 249 287 6,100  Climbing Seattle Center
Thu 03:33:26 PM 48.4019 -122.7240 49° Northeast 241 277 6,000  Descending Seattle Center
Thu 03:33:58 PM 48.4214 -122.6900 54° Northeast 243 280 6,100  Climbing Seattle Center
Thu 03:34:26 PM 48.4433 -122.6450 56° Northeast 242 278 6,000  Descending Seattle Center
Thu 03:34:58 PM 48.4586 -122.6110 45° Northeast 243 280 6,100 109 Climbing Seattle Center
Thu 03:35:21 PM 48.4825 -122.5750 54° Northeast 240 276 6,100 800 Level Seattle Center
Thu 03:35:58 PM 48.5086 -122.5200 56° Northeast 243 280 6,900 1,082 Climbing Seattle Center
Thu 03:36:22 PM 48.5239 -122.4860 41° Northeast 260 299 7,200 1,100 Climbing Seattle Center
Thu 03:36:58 PM 48.5583 -122.4410 346° North 249 287 8,000 1,200 Climbing Seattle Center
Thu 03:37:22 PM 48.5872 -122.4520 300° West 260 299 8,400 900 Climbing Seattle Center
Thu 03:37:58 PM 48.6047 -122.4970 256° West 160 184 8,900 590 Climbing Seattle Center
Thu 03:38:23 PM 48.5975 -122.5400 215° Southwest 221 254 9,000 200 Climbing Seattle Center
Thu 03:38:58 PM 48.5719 -122.5670 223° Southwest 105 121 9,100 -358 Climbing Seattle Center
Thu 03:39:30 PM 48.5506 -122.5970 217° Southwest 203 234 8,600 -800 Descending Seattle Center
Thu 03:39:58 PM 48.5292 -122.6210 218° Southwest 139 160 8,300 -889 Descending Seattle Center
Thu 03:40:24 PM 48.5142 -122.6390 223° Southwest 182 209 7,800 -900 Descending Seattle Center
Thu 03:40:58 PM 48.4947 -122.6660 220° Southwest 165 190 7,400 -1,075 Descending Seattle Center
Thu 03:41:31 PM 48.4756 -122.6900 219° Southwest 162 186 6,600 -1,100 Descending Seattle Center
Thu 03:41:58 PM 48.4606 -122.7080 220° Southwest 172 198 6,300 -1,000 Descending Seattle Center
Thu 03:42:31 PM 48.4389 -122.7350 215° Southwest 170 196 5,600 -1,000 Descending Seattle Center
Thu 03:42:58 PM 48.4219 -122.7530 223° Southwest 172 198 5,300 -393 Descending Seattle Center
Thu 03:43:32 PM 48.4047 -122.7770 211° Southwest 167 192 5,200  Descending Seattle Center
Thu 03:43:58 PM 48.3856 -122.7940 223° Southwest 172 198 5,300  Climbing Seattle Center
Thu 03:44:33 PM 48.3639 -122.8240 217° Southwest 167 192 5,200 -67 Descending Seattle Center
Thu 03:45:27 PM 48.3319 -122.8600 219° Southwest 166 191 5,200  Level Seattle Center
Thu 03:46:28 PM 48.2953 -122.9050 220° Southwest 168 193 5,200  Level Seattle Center
Thu 03:47:28 PM 48.2608 -122.9490 218° Southwest 166 191 5,200  Level Seattle Center
Thu 03:48:29 PM 48.2244 -122.9910 194° South 166 191 5,200  Level Seattle Center
Thu 03:49:30 PM 48.1803 -123.0070 68° East 175 201 5,200  Level Seattle Center
Thu 03:50:30 PM 48.1942 -122.9550 38° Northeast 173 199 5,200  Level Seattle Center
Thu 03:51:37 PM 48.2328 -122.9100 35° Northeast 160 184 5,200 -94 Level Seattle Center
Thu 03:52:37 PM 48.2714 -122.8690 39° Northeast 159 183 5,000 -99 Descending Seattle Center
Thu 03:53:38 PM 48.3033 -122.8300 38° Northeast 152 175 5,000  Level Seattle Center
Thu 03:54:39 PM 48.3356 -122.7920 33° Northeast 151 174 5,000  Level Seattle Center
Thu 03:55:39 PM 48.3719 -122.7560 17° North 155 178 5,000 50 Level Seattle Center
Thu 03:56:40 PM 48.4119 -122.7370 244° Southwest 165 190 5,100 99 Climbing Seattle Center
Thu 03:57:40 PM 48.3961 -122.7860 221° Southwest 144 166 5,200 50 Climbing Seattle Center
Thu 03:58:41 PM 48.3661 -122.8250 217° Southwest 143 165 5,200 492 Level Seattle Center
Thu 03:59:42 PM 48.3381 -122.8570 229° Southwest 139 160 6,200 835 Climbing Seattle Center
Thu 04:00:36 PM 48.3164 -122.8940 217° Southwest 121 139 6,800 470 Climbing Seattle Center
Thu 04:01:37 PM 48.2906 -122.9230 225° Southwest 120 138 7,100 -99 Climbing Seattle Center
Thu 04:02:37 PM 48.2625 -122.9650 213° Southwest 129 148 6,600 -567 Descending Seattle Center
Thu 04:03:44 PM 48.2239 -123.0030 216° Southwest 150 173 5,900 -422 Descending Seattle Center
Thu 04:04:45 PM 48.1833 -123.0480 104° East 194 223 5,700 -397 Descending Seattle Center
Thu 04:05:45 PM 48.1708 -122.9720 34° Northeast 228 262 5,100 -586 Descending Seattle Center
Thu 04:06:58 PM 48.2350 -122.9080 36° Northeast 243 280 4,400 -269 Descending Seattle Center
Thu 04:07:59 PM 48.2819 -122.8570 35° Northeast 174 200 4,500  Climbing Seattle Center
Thu 04:08:53 PM 48.3119 -122.8250 39° Northeast 159 183 4,400 -104 Descending Seattle Center
Thu 04:09:54 PM 48.3483 -122.7800 44° Northeast 164 189 4,300  Descending Seattle Center
Thu 04:10:54 PM 48.3853 -122.7260 342° North 187 215 4,400 149 Climbing Seattle Center
Thu 04:11:55 PM 48.4367 -122.7510 234° Southwest 236 272 4,600 165 Climbing Seattle Center
Thu 04:12:43 PM 48.4081 -122.8110 228° Southwest 217 250 4,700 330 Climbing Seattle Center
Thu 04:13:44 PM 48.3667 -122.8810 223° Southwest 224 258 5,200 738 Climbing Seattle Center
Thu 04:14:45 PM 48.3236 -122.9410 218° Southwest 222 255 6,200 1,488 Climbing Seattle Center
Thu 04:15:45 PM 48.2633 -123.0120 221° Southwest 248 285 8,200 1,388 Climbing Seattle Center
Thu 04:16:46 PM 48.2203 -123.0680 221° Southwest 217 250 9,000 787 Climbing Seattle Center

Login

Don't have an account? Register now (free) for customized features, flight alerts, and more!